createdAt,value
2019-03-16T00:03:11.346Z,93273.10
2019-03-16T00:05:39.818Z,93289.44
2019-03-16T00:08:07.717Z,93283.98
2019-03-16T00:10:36.036Z,93284.42
2019-03-16T00:13:23.708Z,93283.36
2019-03-16T00:15:52.231Z,93292.84
2019-03-16T00:18:32.659Z,93283.94
2019-03-16T00:21:01.441Z,93283.49
2019-03-16T00:23:29.446Z,93291.29
2019-03-16T00:25:57.745Z,93292.12
2019-03-16T00:28:26.011Z,93288.77
2019-03-16T00:30:54.276Z,93285.83
2019-03-16T00:33:22.996Z,93277.27
2019-03-16T00:36:10.700Z,93279.89
2019-03-16T00:38:58.421Z,93277.99
2019-03-16T00:41:26.706Z,93286.58
2019-03-16T00:43:55.307Z,93292.45
2019-03-16T00:49:23.449Z,93292.97
2019-03-16T00:51:52.104Z,93280.58
2019-03-16T00:54:20.375Z,93294.59
2019-03-16T00:56:48.978Z,93296.63
2019-03-16T00:59:17.194Z,93280.20
2019-03-16T01:01:45.091Z,93277.20
2019-03-16T01:04:32.013Z,93279.75
2019-03-16T01:07:00.031Z,93273.09
2019-03-16T01:09:59.630Z,93278.02
2019-03-16T01:12:28.360Z,93274.74
2019-03-16T01:14:55.951Z,93279.50
2019-03-16T01:17:24.490Z,93259.80
2019-03-16T01:22:54.228Z,93274.20
2019-03-16T01:28:25.062Z,93276.10
2019-03-16T01:31:12.733Z,93277.48
2019-03-16T01:33:40.881Z,93271.89
2019-03-16T01:36:09.098Z,93264.08
2019-03-16T01:39:17.758Z,93268.91
2019-03-16T01:44:26.710Z,93258.42
2019-03-16T01:49:56.256Z,93264.98
2019-03-16T01:52:24.153Z,93263.23
2019-03-16T01:54:52.492Z,93270.61
2019-03-16T01:57:21.202Z,93261.50
2019-03-16T01:59:49.757Z,93259.78
2019-03-16T02:02:17.649Z,93258.95
2019-03-16T02:04:46.536Z,93262.12
2019-03-16T02:13:17.693Z,93268.68
2019-03-16T02:15:46.322Z,93271.03
2019-03-16T02:18:14.804Z,93270.58
2019-03-16T02:20:43.383Z,93269.78
2019-03-16T02:23:11.740Z,93277.00
2019-03-16T02:25:39.622Z,93275.69
2019-03-16T02:28:07.452Z,93271.96
2019-03-16T02:30:36.087Z,93270.41
2019-03-16T02:33:12.773Z,93270.23
2019-03-16T02:35:40.752Z,93275.00
2019-03-16T02:38:09.162Z,93270.20
2019-03-16T02:40:37.414Z,93276.59
2019-03-16T02:46:07.331Z,93274.41
2019-03-16T02:48:35.614Z,93276.69
2019-03-16T02:51:04.131Z,93275.83
2019-03-16T02:53:32.429Z,93280.28
2019-03-16T02:56:01.061Z,93269.13
2019-03-16T02:58:29.752Z,93263.50
2019-03-16T03:00:58.072Z,93255.02
2019-03-16T03:03:29.842Z,93256.39
2019-03-16T03:05:56.859Z,93254.19
2019-03-16T03:08:25.436Z,93252.56
2019-03-16T03:10:53.825Z,93255.18
2019-03-16T03:13:22.104Z,93261.50
2019-03-16T03:15:52.586Z,93262.74
2019-03-16T03:18:20.839Z,93264.20
2019-03-16T03:20:49.112Z,93251.36
2019-03-16T03:23:17.318Z,93265.92
2019-03-16T03:25:46.075Z,93266.89
2019-03-16T03:28:14.464Z,93276.24
2019-03-16T03:30:43.211Z,93267.92
2019-03-16T03:33:11.219Z,93278.87
2019-03-16T03:35:39.612Z,93288.27
2019-03-16T03:38:07.479Z,93265.98
2019-03-16T03:40:35.009Z,93284.60
2019-03-16T03:43:03.374Z,93267.09
2019-03-16T03:45:32.022Z,93268.34
2019-03-16T03:48:00.315Z,93276.04
2019-03-16T03:50:28.922Z,93276.11
2019-03-16T03:52:56.432Z,93276.14
2019-03-16T03:55:24.631Z,93273.55
2019-03-16T03:57:52.952Z,93285.09
2019-03-16T04:00:21.200Z,93282.42
2019-03-16T04:02:49.088Z,93289.44
2019-03-16T04:05:18.408Z,93266.27
2019-03-16T04:07:47.107Z,93267.99
2019-03-16T04:10:15.354Z,93274.38
2019-03-16T04:12:44.078Z,93268.89
2019-03-16T04:18:35.061Z,93275.73
2019-03-16T04:21:15.481Z,93280.59
2019-03-16T04:23:43.756Z,93286.84
2019-03-16T04:26:11.574Z,93272.62
2019-03-16T04:28:40.203Z,93277.04
2019-03-16T04:31:08.650Z,93258.59
2019-03-16T04:33:36.936Z,93274.11
2019-03-16T04:36:05.641Z,93284.02
2019-03-16T04:38:33.996Z,93289.51
2019-03-16T04:41:02.593Z,93271.27
2019-03-16T04:43:30.537Z,93272.20
2019-03-16T04:45:59.259Z,93297.66
2019-03-16T04:48:27.784Z,93264.98
2019-03-16T04:50:56.118Z,93266.98
2019-03-16T04:53:24.711Z,93282.53
2019-03-16T04:55:53.546Z,93280.05
2019-03-16T04:58:21.481Z,93281.42
2019-03-16T05:00:49.982Z,93288.88
2019-03-16T05:03:18.634Z,93282.80
2019-03-16T05:05:46.967Z,93301.03
2019-03-16T05:08:15.631Z,93279.31
2019-03-16T05:11:02.863Z,93283.88
2019-03-16T05:14:01.877Z,93298.06
2019-03-16T05:16:30.208Z,93307.46
2019-03-16T05:18:58.763Z,93292.09
2019-03-16T05:21:27.123Z,93306.98
2019-03-16T05:23:55.360Z,93299.55
2019-03-16T05:26:23.835Z,93300.42
2019-03-16T05:28:52.026Z,93301.38
2019-03-16T05:31:19.918Z,93304.36
2019-03-16T05:33:48.230Z,93304.25
2019-03-16T05:36:16.231Z,93314.58
2019-03-16T05:39:24.904Z,93301.86
2019-03-16T05:44:53.869Z,93298.13
2019-03-16T05:50:23.403Z,93302.70
2019-03-16T05:56:00.989Z,93303.52
2019-03-16T06:01:57.517Z,93312.16
2019-03-16T06:07:34.777Z,93316.13
2019-03-16T06:10:03.268Z,93318.80
2019-03-16T06:12:31.581Z,93340.17
2019-03-16T06:14:59.464Z,93340.23
2019-03-16T06:17:27.983Z,93332.44
2019-03-16T06:19:56.222Z,93346.39
2019-03-16T06:22:24.923Z,93342.03
2019-03-16T06:24:55.142Z,93338.63
2019-03-16T06:27:23.415Z,93338.14
2019-03-16T06:29:51.601Z,93342.77
2019-03-16T06:38:22.662Z,93343.42
2019-03-16T06:40:51.312Z,93344.98
2019-03-16T06:49:21.074Z,93351.50
2019-03-16T06:51:49.781Z,93341.17
2019-03-16T06:54:17.988Z,93346.15
2019-03-16T06:56:46.222Z,93340.24
2019-03-16T06:59:14.991Z,93352.38
2019-03-16T07:01:43.601Z,93360.87
2019-03-16T07:04:12.011Z,93354.48
2019-03-16T07:06:40.476Z,93357.00
2019-03-16T07:09:09.094Z,93350.33
2019-03-16T07:11:38.187Z,93353.75
2019-03-16T07:14:06.451Z,93358.28
2019-03-16T07:16:34.983Z,93363.77
2019-03-16T07:19:02.976Z,93365.56
2019-03-16T07:21:31.311Z,93362.56
2019-03-16T07:24:00.144Z,93366.44
2019-03-16T07:27:08.503Z,93371.81
2019-03-16T07:29:56.122Z,93360.69
2019-03-16T07:32:24.831Z,93360.76
2019-03-16T07:34:53.102Z,93367.91
2019-03-16T07:37:21.631Z,93359.97
2019-03-16T07:39:50.586Z,93371.09
2019-03-16T07:42:59.165Z,93377.27
2019-03-16T07:45:27.986Z,93370.98
2019-03-16T07:47:56.421Z,93376.75
2019-03-16T07:50:24.848Z,93386.11
2019-03-16T07:52:53.222Z,93386.01
2019-03-16T07:55:21.507Z,93392.71
2019-03-16T07:57:50.109Z,93384.98
2019-03-16T08:00:18.673Z,93383.70
2019-03-16T08:02:47.370Z,93371.30
2019-03-16T08:05:19.099Z,93378.11
2019-03-16T08:07:52.521Z,93383.31
2019-03-16T08:10:40.172Z,93384.34
2019-03-16T08:13:08.427Z,93382.24
2019-03-16T08:15:36.333Z,93384.09
2019-03-16T08:18:07.703Z,93389.72
2019-03-16T08:20:35.434Z,93382.64
2019-03-16T08:23:03.026Z,93395.77
2019-03-16T08:25:31.171Z,93394.55
2019-03-16T08:27:59.480Z,93391.20
2019-03-16T08:30:27.587Z,93390.50
2019-03-16T08:32:56.160Z,93401.81
2019-03-16T08:35:24.943Z,93403.62
2019-03-16T08:37:53.281Z,93408.25
2019-03-16T08:40:21.579Z,93403.72
2019-03-16T08:42:51.443Z,93413.83
2019-03-16T08:45:26.213Z,93408.08
2019-03-16T08:47:54.666Z,93408.11
2019-03-16T08:50:23.418Z,93403.50
2019-03-16T08:52:53.671Z,93407.07
2019-03-16T08:58:46.994Z,93418.80
2019-03-16T09:01:55.194Z,93417.91
2019-03-16T09:04:54.493Z,93420.45
2019-03-16T09:07:34.457Z,93426.45
2019-03-16T09:10:33.622Z,93437.95
2019-03-16T09:13:13.774Z,93433.75
2019-03-16T09:15:42.568Z,93427.52
2019-03-16T09:18:50.873Z,93428.98
2019-03-16T09:24:39.118Z,93433.56
2019-03-16T09:27:07.013Z,93440.39
2019-03-16T09:29:35.622Z,93440.05
2019-03-16T09:32:04.174Z,93430.16
2019-03-16T09:40:54.476Z,93418.77
2019-03-16T09:43:22.719Z,93419.66
2019-03-16T09:45:51.406Z,93408.64
2019-03-16T09:49:00.047Z,93404.96
2019-03-16T09:54:30.630Z,93394.25
2019-03-16T10:03:03.295Z,93378.34
2019-03-16T10:05:31.611Z,93377.18
2019-03-16T10:11:09.343Z,93365.98
2019-03-16T10:13:37.317Z,93363.26
2019-03-16T10:16:05.501Z,93369.95
2019-03-16T10:19:14.101Z,93364.48
2019-03-16T10:21:43.014Z,93361.70
2019-03-16T10:24:11.797Z,93356.99
2019-03-16T10:26:40.258Z,93350.52
2019-03-16T10:29:09.340Z,93348.77
2019-03-16T10:31:38.003Z,93343.02
2019-03-16T10:34:05.550Z,93343.77
2019-03-16T10:39:54.804Z,93353.91
2019-03-16T10:42:44.050Z,93352.87
2019-03-16T10:45:12.334Z,93341.48
2019-03-16T10:47:40.663Z,93353.27
2019-03-16T10:56:33.587Z,93347.03
2019-03-16T10:59:01.861Z,93355.30
2019-03-16T11:01:30.440Z,93343.78
2019-03-16T11:07:40.992Z,93336.73
2019-03-16T11:10:21.281Z,93330.53
2019-03-16T11:12:49.886Z,93331.28
2019-03-16T11:15:29.650Z,93343.65
2019-03-16T11:17:57.966Z,93333.55
2019-03-16T11:21:06.576Z,93331.55
2019-03-16T11:23:34.863Z,93319.64
2019-03-16T11:26:02.929Z,93332.59
2019-03-16T11:28:49.834Z,93324.08
2019-03-16T11:31:18.179Z,93321.34
2019-03-16T11:33:48.398Z,93306.37
2019-03-16T11:36:23.822Z,93305.25
2019-03-16T11:38:52.072Z,93312.36
2019-03-16T11:41:20.572Z,93309.59
2019-03-16T11:43:49.150Z,93313.49
2019-03-16T11:46:17.434Z,93308.18
2019-03-16T11:48:45.709Z,93297.86
2019-03-16T11:51:14.273Z,93306.89
2019-03-16T11:53:42.491Z,93306.84
2019-03-16T11:56:17.876Z,93289.31
2019-03-16T11:58:48.263Z,93295.55
2019-03-16T12:01:35.584Z,93289.11
2019-03-16T12:04:03.439Z,93294.53
2019-03-16T12:06:32.047Z,93282.58
2019-03-16T12:09:00.539Z,93288.20
2019-03-16T12:11:28.912Z,93282.95
2019-03-16T12:13:57.595Z,93292.84
2019-03-16T12:16:26.287Z,93275.73
2019-03-16T12:18:54.808Z,93260.73
2019-03-16T12:21:23.079Z,93261.53
2019-03-16T12:23:51.043Z,93262.98
2019-03-16T12:26:20.314Z,93251.59
2019-03-16T12:28:59.308Z,93239.00
2019-03-16T12:31:27.544Z,93250.78
2019-03-16T12:33:56.565Z,93234.68
2019-03-16T12:36:24.523Z,93236.64
2019-03-16T12:38:53.549Z,93236.36
2019-03-16T12:41:22.219Z,93245.23
2019-03-16T12:43:51.129Z,93220.36
2019-03-16T12:46:19.587Z,93228.62
2019-03-16T12:48:47.793Z,93224.80
2019-03-16T12:51:16.479Z,93224.16
2019-03-16T12:53:44.339Z,93215.95
2019-03-16T12:56:12.621Z,93216.20
2019-03-16T12:58:40.962Z,93210.22
2019-03-16T13:01:12.473Z,93197.89
2019-03-16T13:03:46.266Z,93189.19
2019-03-16T13:06:14.924Z,93197.47
2019-03-16T13:08:43.659Z,93187.21
2019-03-16T13:11:11.643Z,93190.27
2019-03-16T13:13:39.914Z,93197.73
2019-03-16T13:16:08.405Z,93190.04
2019-03-16T13:18:36.978Z,93187.63
2019-03-16T13:21:05.266Z,93181.61
2019-03-16T13:23:33.943Z,93169.67
2019-03-16T13:26:01.944Z,93174.72
2019-03-16T13:28:29.802Z,93163.38
2019-03-16T13:30:58.095Z,93164.82
2019-03-16T13:33:26.966Z,93159.98
2019-03-16T13:35:54.549Z,93162.59
2019-03-16T13:38:23.195Z,93157.41
2019-03-16T13:40:51.611Z,93148.76
2019-03-16T13:43:19.640Z,93153.75
2019-03-16T13:45:48.310Z,93138.23
2019-03-16T13:48:16.658Z,93126.19
2019-03-16T13:50:45.260Z,93131.33
2019-03-16T13:53:13.879Z,93129.02
2019-03-16T13:55:42.158Z,93132.96
2019-03-16T13:58:10.999Z,93128.34
2019-03-16T14:00:38.903Z,93119.20
2019-03-16T14:03:15.161Z,93103.25
2019-03-16T14:05:43.033Z,93101.69
2019-03-16T14:08:11.247Z,93109.12
2019-03-16T14:10:40.308Z,93106.85
2019-03-16T14:13:27.253Z,93100.20
2019-03-16T14:15:56.009Z,93104.64
2019-03-16T14:18:23.939Z,93098.80
2019-03-16T14:24:02.328Z,93079.41
2019-03-16T14:26:30.924Z,93079.89
2019-03-16T14:28:59.201Z,93082.45
2019-03-16T14:31:27.549Z,93069.47
2019-03-16T14:33:55.557Z,93067.78
2019-03-16T14:36:24.239Z,93062.91
2019-03-16T14:38:52.944Z,93069.41
2019-03-16T14:41:21.411Z,93058.25
2019-03-16T14:43:57.878Z,93067.90
2019-03-16T14:46:26.674Z,93062.22
2019-03-16T14:48:55.280Z,93051.31
2019-03-16T14:51:24.818Z,93061.56
2019-03-16T14:53:59.947Z,93054.19
2019-03-16T14:56:40.557Z,93057.45
2019-03-16T14:59:08.852Z,93053.82
2019-03-16T15:01:36.741Z,93051.33
2019-03-16T15:04:04.772Z,93046.34
2019-03-16T15:06:33.484Z,93037.30
2019-03-16T15:09:01.702Z,93045.94
2019-03-16T15:11:29.673Z,93040.20
2019-03-16T15:14:20.967Z,93031.49
2019-03-16T15:16:39.740Z,93031.49
2019-03-16T15:19:07.804Z,93040.75
2019-03-16T15:21:35.769Z,93031.80
2019-03-16T15:24:04.065Z,93028.13
2019-03-16T15:26:32.446Z,93029.77
2019-03-16T15:29:01.024Z,93026.48
2019-03-16T15:31:29.301Z,93033.92
2019-03-16T15:33:57.178Z,93030.61
2019-03-16T15:36:25.581Z,93024.89
2019-03-16T15:38:53.419Z,93025.80
2019-03-16T15:41:21.715Z,93015.83
2019-03-16T15:43:50.034Z,93027.22
2019-03-16T15:46:18.650Z,93026.19
2019-03-16T15:48:46.970Z,93021.60
2019-03-16T15:51:34.306Z,93005.91
2019-03-16T15:54:02.769Z,93005.91
2019-03-16T15:56:30.654Z,93001.33
2019-03-16T15:58:59.447Z,92999.91
2019-03-16T16:01:46.369Z,93003.78
2019-03-16T16:04:15.113Z,93003.78
2019-03-16T16:06:43.528Z,93003.69
2019-03-16T16:09:12.150Z,92994.55
2019-03-16T16:11:40.308Z,92996.06
2019-03-16T16:14:08.570Z,92996.21
2019-03-16T16:16:37.275Z,92999.04
2019-03-16T16:19:05.800Z,92995.44
2019-03-16T16:21:34.270Z,92991.36
2019-03-16T16:24:02.411Z,92979.52
2019-03-16T16:26:30.730Z,92987.02
2019-03-16T16:28:59.405Z,92979.42
2019-03-16T16:31:28.128Z,92980.95
2019-03-16T16:33:56.831Z,92983.74
2019-03-16T16:36:25.496Z,92982.97
2019-03-16T16:38:54.183Z,92979.57
2019-03-16T16:41:25.363Z,92981.52
2019-03-16T16:43:52.643Z,92972.47
2019-03-16T16:46:20.889Z,92967.06
2019-03-16T16:48:49.654Z,92964.41
2019-03-16T16:51:18.238Z,92963.05
2019-03-16T16:53:46.905Z,92962.52
2019-03-16T16:56:15.238Z,92955.50
2019-03-16T16:58:43.510Z,92955.10
2019-03-16T17:01:11.801Z,92955.09
2019-03-16T17:03:40.008Z,92955.91
2019-03-16T17:06:08.664Z,92959.69
2019-03-16T17:08:37.179Z,92952.20
2019-03-16T17:11:05.809Z,92955.94
2019-03-16T17:13:33.658Z,92951.11
2019-03-16T17:16:02.076Z,92950.34
2019-03-16T17:18:30.456Z,92952.39
2019-03-16T17:20:58.774Z,92958.84
2019-03-16T17:23:26.709Z,92954.38
2019-03-16T17:25:54.606Z,92952.30
2019-03-16T17:28:23.147Z,92957.08
2019-03-16T17:30:51.368Z,92948.13
2019-03-16T17:33:19.635Z,92948.70
2019-03-16T17:35:48.231Z,92952.13
2019-03-16T17:38:16.861Z,92946.83
2019-03-16T17:40:45.594Z,92945.36
2019-03-16T17:43:13.932Z,92945.38
2019-03-16T17:45:42.196Z,92938.45
2019-03-16T17:48:10.890Z,92941.84
2019-03-16T17:50:39.524Z,92942.86
2019-03-16T17:53:07.908Z,92942.93
2019-03-16T17:55:36.237Z,92943.59
2019-03-16T17:58:04.873Z,92940.42
2019-03-16T18:00:33.572Z,92937.96
2019-03-16T18:03:01.849Z,92946.19
2019-03-16T18:05:30.391Z,92946.66
2019-03-16T18:07:58.729Z,92947.03
2019-03-16T18:10:27.468Z,92944.09
2019-03-16T18:12:56.068Z,92941.00
2019-03-16T18:15:23.968Z,92947.20
2019-03-16T18:17:52.304Z,92949.25
2019-03-16T18:20:20.969Z,92938.92
2019-03-16T18:22:49.673Z,92943.84
2019-03-16T18:25:17.283Z,92942.50
2019-03-16T18:27:45.835Z,92952.11
2019-03-16T18:30:14.293Z,92942.28
2019-03-16T18:32:42.105Z,92940.11
2019-03-16T18:35:10.123Z,92951.77
2019-03-16T18:37:38.377Z,92955.48
2019-03-16T18:40:07.953Z,92951.48
2019-03-16T18:42:36.570Z,92949.83
2019-03-16T18:45:05.057Z,92944.31
2019-03-16T18:47:33.328Z,92944.48
2019-03-16T18:50:01.660Z,92940.68
2019-03-16T18:52:29.886Z,92930.11
2019-03-16T18:54:58.160Z,92932.56
2019-03-16T18:57:26.896Z,92933.75
2019-03-16T18:59:55.114Z,92935.22
2019-03-16T19:02:23.432Z,92937.67
2019-03-16T19:04:52.029Z,92932.07
2019-03-16T19:07:20.549Z,92925.95
2019-03-16T19:09:48.940Z,92927.42
2019-03-16T19:12:17.174Z,92930.15
2019-03-16T19:14:45.394Z,92931.58
2019-03-16T19:17:13.739Z,92928.97
2019-03-16T19:19:41.610Z,92926.84
2019-03-16T19:22:11.612Z,92918.76
2019-03-16T19:24:49.626Z,92916.80
2019-03-16T19:27:19.277Z,92915.97
2019-03-16T19:29:54.155Z,92905.75
2019-03-16T19:32:33.143Z,92903.66
2019-03-16T19:34:58.530Z,92905.99
2019-03-16T19:37:27.197Z,92900.77
2019-03-16T19:39:55.790Z,92897.24
2019-03-16T19:42:24.088Z,92894.97
2019-03-16T19:44:52.804Z,92890.00
2019-03-16T19:47:21.071Z,92883.28
2019-03-16T19:50:08.865Z,92877.02
2019-03-16T19:52:37.077Z,92873.68
2019-03-16T19:55:45.425Z,92873.16
2019-03-16T19:58:12.984Z,92881.86
2019-03-16T20:00:41.749Z,92873.83
2019-03-16T20:03:21.733Z,92873.76
2019-03-16T20:09:02.811Z,92878.26
2019-03-16T20:11:42.998Z,92875.75
2019-03-16T20:14:11.295Z,92874.55
2019-03-16T20:16:58.918Z,92876.16
2019-03-16T20:19:47.055Z,92865.73
2019-03-16T20:25:03.148Z,92865.28
2019-03-16T20:27:31.532Z,92865.98
2019-03-16T20:30:00.509Z,92860.05
2019-03-16T20:32:29.768Z,92860.00
2019-03-16T20:34:58.331Z,92857.97
2019-03-16T20:37:27.137Z,92859.44
2019-03-16T20:39:55.405Z,92852.11
2019-03-16T20:42:24.023Z,92849.73
2019-03-16T20:44:52.482Z,92858.22
2019-03-16T20:47:21.190Z,92861.77
2019-03-16T20:49:50.009Z,92857.44
2019-03-16T20:52:17.858Z,92856.38
2019-03-16T20:54:46.241Z,92861.77
2019-03-16T20:57:14.935Z,92863.31
2019-03-16T20:59:43.700Z,92864.23
2019-03-16T21:02:11.592Z,92860.12
2019-03-16T21:04:40.201Z,92863.45
2019-03-16T21:07:27.769Z,92866.34
2019-03-16T21:10:08.502Z,92863.26
2019-03-16T21:15:45.445Z,92874.92
2019-03-16T21:18:14.087Z,92866.83
2019-03-16T21:23:43.958Z,92870.05
2019-03-16T21:26:31.229Z,92875.44
2019-03-16T21:28:59.129Z,92882.17
2019-03-16T21:31:27.653Z,92874.48
2019-03-16T21:33:56.020Z,92875.92
2019-03-16T21:36:26.259Z,92874.58
2019-03-16T21:38:55.886Z,92871.05
2019-03-16T21:41:24.551Z,92870.86
2019-03-16T21:43:52.926Z,92864.82
2019-03-16T21:46:20.593Z,92868.91
2019-03-16T21:48:48.970Z,92869.77
2019-03-16T21:51:17.276Z,92871.23
2019-03-16T21:53:45.305Z,92882.22
2019-03-16T21:56:13.629Z,92878.45
2019-03-16T21:58:41.110Z,92880.55
2019-03-16T22:01:09.831Z,92878.02
2019-03-16T22:03:41.905Z,92874.42
2019-03-16T22:06:14.187Z,92871.09
2019-03-16T22:08:43.448Z,92873.92
2019-03-16T22:11:12.328Z,92871.20
2019-03-16T22:13:40.256Z,92869.45
2019-03-16T22:16:11.718Z,92867.59
2019-03-16T22:18:40.201Z,92858.61
2019-03-16T22:21:08.436Z,92863.64
2019-03-16T22:23:37.118Z,92869.26
2019-03-16T22:26:05.287Z,92864.30
2019-03-16T22:28:33.954Z,92865.34
2019-03-16T22:31:01.799Z,92869.08
2019-03-16T22:33:30.237Z,92863.44
2019-03-16T22:35:58.836Z,92867.03
2019-03-16T22:38:46.582Z,92865.09
2019-03-16T22:41:15.359Z,92869.58
2019-03-16T22:43:44.112Z,92859.92
2019-03-16T22:46:12.024Z,92855.70
2019-03-16T22:48:39.904Z,92855.02
2019-03-16T22:51:09.060Z,92848.46
2019-03-16T22:53:37.657Z,92844.41
2019-03-16T22:56:06.486Z,92847.88
2019-03-16T22:58:35.215Z,92840.99
2019-03-16T23:01:03.673Z,92839.02
2019-03-16T23:03:32.352Z,92836.92
2019-03-16T23:06:01.015Z,92834.41
2019-03-16T23:08:29.340Z,92834.96
2019-03-16T23:10:57.604Z,92827.09
2019-03-16T23:13:26.272Z,92821.87
2019-03-16T23:15:54.302Z,92819.52
2019-03-16T23:18:23.251Z,92818.04
2019-03-16T23:20:52.049Z,92817.39
2019-03-16T23:23:19.861Z,92806.98
2019-03-16T23:25:47.821Z,92809.05
2019-03-16T23:28:17.011Z,92802.28
2019-03-16T23:30:46.179Z,92797.35
2019-03-16T23:33:14.780Z,92789.38
2019-03-16T23:35:43.980Z,92790.20
2019-03-16T23:38:12.692Z,92786.28
2019-03-16T23:40:41.337Z,92786.97
2019-03-16T23:43:10.353Z,92777.81
2019-03-16T23:45:38.963Z,92778.47
2019-03-16T23:48:07.119Z,92768.14
2019-03-16T23:50:35.435Z,92772.06
2019-03-16T23:53:02.864Z,92765.02
2019-03-16T23:55:30.846Z,92770.81
